YOSEMITE NATIONAL PARK, CA

12:02 PM PST on March 03, 2015 (GMT -0800)
Mammoth Yosemite | Change Station
CLOSE
Current Station
Airport
Location: Mammoth,
Elevation: 7129 ft
Nearby Weather Stations

Elev 7129 ft 37.62 °N, 118.84 °W | Updated 27 minutes ago

Mostly Cloudy
Mostly Cloudy
36 °F
Feels Like 30 °F
N
7
Wind Variable Wind from NW

Today
High -- | Low -- °F
--% Chance of Precip.
Yesterday
High -- | Low -- °F
Precip. -- in
6:27 AM 5:54 PM
Waxing Gibbous, 97% visible
Pressure 29.96 in
Visibility 10.0 miles
Clouds Scattered Clouds 3300 ft
Scattered Clouds 4300 ft
Windchill 30 °F
Dew Point 18 °F
Humidity 48%
Rainfall 0.00 in
Snow Depth Not available.
UV 6 out of 12
Pollen 8.00 out of 12
Air Quality Not available.
Flu Activity Not available.
METAR KMMH 031935Z AUTO 31006KT 10SM SCT033 SCT043 02/M08 A2996 RMK AO1

More Conditions Fewer Conditions

Pressure 29.96 in
Visibility 10.0 miles
Clouds Scattered Clouds 3300 ft
Scattered Clouds 4300 ft
Windchill 30 °F
Dew Point 18 °F
Humidity 48%
Rainfall 0.00 in
Snow Depth Not available.
UV 6 out of 12
Pollen 8.00 out of 12
Air Quality Not available.
Flu Activity Not available.
METAR KMMH 031935Z AUTO 31006KT 10SM SCT033 SCT043 02/M08 A2996 RMK AO1

More Conditions Fewer Conditions

10-Day Weather Forecast

Almanac

Astronomy

Mar. 03, 2015 Rise Set
Actual Time
Civil Twilight
Nautical Twilight
Astronomical Twilight
Moon
Length of Visible Light
Length of Day
Tomorrow will be .
, % of the Moon is Illuminated

Today's Extremes

State Highs State Lows

Community

WunderPhotos

Upload Photos

1,802,226 photos uploaded!

WunderBlogs® & News

Nearby

Air Quality

  Air Quality AQ Index Pollutant
Not available.

Snow Depth

Station Depth Elevation

Earthquake Activity

City Distance Mag. Time & Date
Minimum magnitude displayed is 2.5.

Coastal Water Temperatures

Place Temperature

Nearby Weather Stations